Historyczne dane pomiarowe

Dodano dane terminowe – wersja testowa.

Dane z okresu 1951-2019

Wersja bazy: 1.34 [2019-03-16, lista zmian], aktualizacja planowana na 2019-04-15

Dane meteo z obszaru Polski uzyskane na podstawie danych udostępnionych przez Instytut Meteorologii i Gospodarki Wodnej – Państwowy Instytut Badawczy.

 

Wybierz Datę:    

       

TemperaturaWilgotnośćWiatrCiśnienieOpadyŚniegCzas trwania zjawisk
 Stacja t tx tn tng RH VA  wxwx mslp ppp RRR   cm mm wxwxwxwxwxwxwx
2019-07-25 23.5 30.6 16.6 14.6-- 2.3----- 0.0------------
2019-07-24 23.1 27.7 17.4 14.2-- 4.3----- 0.0------------
2019-07-23 19.4 23.0 16.0 15.3-- 8.0----- 0.0------------
2019-07-22 19.1 24.5 12.2 8.7-- 6.0----- 0.0------------
2019-07-21 21.9 28.8 17.7 15.7-- 4.0----- 0.0------------
2019-07-20 22.9 30.0 14.4 11.2-- 4.3----- 0.0------------
2019-07-19 19.5 28.8 11.7 9.5-- 5.0----- 0.1------------
2019-07-18 18.1 25.6 7.9 3.6-- 2.0----- 0.0------------
2019-07-17 17.2 22.3 10.6 8.7-- 4.7----- 0.0------------
2019-07-16 16.1 22.5 11.0 7.2-- 7.0----- 1.3------------
2019-07-15 16.9 25.8 7.1 4.3-- 3.0----- 0.0------------
2019-07-14 18.8 24.3 13.0 9.1-- 2.3----- 0.0------------
2019-07-13 18.8 25.3 14.6 13.6-- 5.3----- 0.0------------
2019-07-12 18.4 26.8 9.4 5.8-- 3.7----- 0.0------------
2019-07-11 16.9 24.0 9.2 6.7-- 4.0----- 0.0------------
2019-07-10 16.7 23.3 10.1 7.8-- 6.3----- 1.3------------
2019-07-09 15.1 21.0 9.8 6.9-- 7.0----- 2.4------------
2019-07-08 14.0 19.6 9.5 7.9-- 6.3----- 0.3------------
2019-07-07 14.6 18.8 10.4 9.6-- 6.3----- 0.9------------
2019-07-06 15.0 19.9 9.5 7.2-- 8.0----- 1.6------------
2019-07-05 15.8 19.8 13.1 11.8-- 6.0----- 6.5------------
2019-07-04 15.0 20.8 7.1 4.1-- 5.3----- 2.5------------
2019-07-03 14.3 18.7 8.4 5.7-- 5.7----- 0.4------------
2019-07-02 17.5 23.5 11.7 8.3-- 3.7----- 0.0------------
2019-07-01 23.2 33.4 15.9 14.2-- 5.3----- 1.0------------
2019-06-30 26.9 36.7 14.1 9.6-- 0.0----- 0.0------------
2019-06-29 20.5 28.9 9.2 5.8-- 1.3----- 0.0------------
2019-06-28 19.4 24.4 14.1 12.6-- 4.3----- 0.0------------
2019-06-27 20.4 30.9 16.1 16.3-- 6.3----- 0.0------------
2019-06-26 28.1 37.0 19.0 15.5-- 3.7----- 0.0------------
2019-06-25 24.3 31.8 16.0 11.2-- 3.3----- 0.0------------
2019-06-24 20.2 27.4 10.6 5.9-- 2.0----- 0.0------------
2019-06-23 18.6 24.7 11.4 7.9-- 2.3----- 0.0------------
2019-06-22 18.8 24.3 11.9 7.7-- 3.7----- 0.0------------
2019-06-21 20.0 24.2 16.0 13.2-- 7.0----- 5.2------------
2019-06-20 22.2 31.5 17.0 14.2-- 5.3----- 4.8------------
2019-06-19 22.3 30.2 15.3 10.6-- 4.0----- 0.1------------
2019-06-18 21.1 27.1 14.0 8.5-- 2.7----- 0.0------------
2019-06-17 19.0 25.3 10.4 5.6-- 2.3----- 0.0------------
2019-06-16 20.7 27.2 18.0 15.7-- 6.7----- 0.0------------
2019-06-15 23.2 30.5 15.1 11.6-- 4.3----- 0.5------------
2019-06-14 21.5 27.0 16.0 11.7-- 3.3----- 0.0------------
2019-06-13 21.8 28.6 18.5 16.0-- 7.0----- 6.0------------
2019-06-12 26.5 33.1 19.9 15.9-- 3.0----- 0.8------------
2019-06-11 25.7 33.6 18.5 15.7-- 3.7----- 0.0------------
2019-06-10 22.4 29.1 15.6 11.7-- 6.3----- 0.0------------
2019-06-09 18.4 24.8 10.1 3.4-- 3.0----- 0.0------------
2019-06-08 20.0 25.5 15.4 10.8-- 3.7----- 0.0------------
2019-06-07 20.9 25.1 15.2 11.6-- 4.0----- 0.0------------
2019-06-06 23.0 29.1 17.3 13.0-- 3.0----- 0.0------------
2019-06-05 23.6 30.3 17.2 12.3-- 2.3----- 0.1------------
2019-06-04 22.6 29.2 15.1 11.0-- 2.3----- 0.0------------
2019-06-03 21.5 28.2 14.4 10.2-- 1.3----- 0.0------------
2019-06-02 19.8 26.3 14.1 9.2-- 3.0----- 0.0------------
2019-06-01 17.7 24.2 10.8 6.7-- 5.7----- 0.0------------
2019-05-31 16.3 22.1 10.7 5.4-- 6.7----- 0.1------------
2019-05-30 10.7 18.1 1.6 -2.9-- 1.7----- 0.0------------
2019-05-29 10.9 15.7 6.8 3.9-- 4.3----- 0.0------------
2019-05-28 14.5 19.3 11.9 10.8-- 8.0----- 3.3------------
2019-05-27 17.1 21.0 13.1 9.6-- 7.0----- 0.8------------
98.2 ms

 

Źródłem pochodzenia danych jest Instytut Meteorologii i Gospodarki Wodnej – Państwowy Instytut Badawczy. Dane Instytutu Meteorologii i Gospodarki Wodnej – Państwowego Instytutu Badawczego zostały przetworzone.

Dane źródłowe można odnaleźć na stronie https://dane.imgw.pl